createdAt,value
2023-04-24T04:36:43.846Z,99647.78
2023-04-24T05:04:18.367Z,99677.41
2023-04-24T05:10:18.917Z,99686.19
2023-04-24T05:12:48.748Z,99691.44
2023-04-24T05:15:20.168Z,99687.03
2023-04-24T05:17:49.955Z,99696.69
2023-04-24T05:20:22.180Z,99701.94
2023-04-24T05:22:52.796Z,99703.63
2023-04-24T05:25:35.970Z,99703.59
2023-04-24T05:28:06.956Z,99701.81
2023-04-24T05:30:36.927Z,99719.31
2023-04-24T05:33:10.636Z,99711.41
2023-04-24T05:35:43.683Z,99722.84
2023-04-24T05:38:20.068Z,99718.44
2023-04-24T05:40:53.885Z,99722.81
2023-04-24T05:43:24.570Z,99736.81
2023-04-24T05:46:13.518Z,99731.53
2023-04-24T05:48:43.340Z,99734.19
2023-04-24T05:51:13.666Z,99741.16
2023-04-24T05:54:08.144Z,99746.31
2023-04-24T05:56:50.954Z,99753.34
2023-04-24T05:59:20.843Z,99756.00
2023-04-24T06:01:54.696Z,99762.19
2023-04-24T06:04:26.290Z,99767.41
2023-04-24T06:07:03.282Z,99769.16
2023-04-24T06:09:37.838Z,99770.84
2023-04-24T06:12:19.692Z,99774.31
2023-04-24T06:14:55.520Z,99777.84
2023-04-24T06:17:28.419Z,99782.16
2023-04-24T06:20:00.775Z,99793.59
2023-04-24T06:22:31.021Z,99787.38
2023-04-24T06:25:09.996Z,99803.06
2023-04-24T06:27:46.109Z,99796.09
2023-04-24T06:30:19.306Z,99799.66
2023-04-24T06:33:19.557Z,99811.13
2023-04-24T06:35:53.349Z,99817.25
2023-04-24T06:38:23.208Z,99813.72
2023-04-24T06:40:54.135Z,99823.38
2023-04-24T06:43:26.585Z,99827.75
2023-04-24T06:45:56.509Z,99830.41
2023-04-24T06:48:27.813Z,99827.78
2023-04-24T06:51:00.433Z,99829.50
2023-04-24T06:53:32.713Z,99836.56
2023-04-24T06:56:02.655Z,99838.25
2023-04-24T06:58:36.649Z,99847.00
2023-04-24T07:01:08.898Z,99845.28
2023-04-24T07:03:43.767Z,99851.31
2023-04-24T07:06:21.692Z,99852.22
2023-04-24T07:08:56.397Z,99856.59
2023-04-24T07:11:31.469Z,99857.44
2023-04-24T07:14:03.918Z,99853.09
2023-04-24T07:16:41.089Z,99856.66
2023-04-24T07:19:15.340Z,99859.34
2023-04-24T07:21:51.622Z,99868.97
2023-04-24T07:24:22.972Z,99874.06
2023-04-24T07:26:59.665Z,99874.00
2023-04-24T07:29:37.535Z,99876.72
2023-04-24T07:32:12.789Z,99881.13
2023-04-24T07:34:44.879Z,99894.34
2023-04-24T07:37:17.276Z,99890.75
2023-04-24T07:39:47.148Z,99907.38
2023-04-24T07:42:22.345Z,99909.97
2023-04-24T07:45:02.483Z,99921.34
2023-04-24T07:47:35.389Z,99922.25
2023-04-24T07:50:09.054Z,99927.56
2023-04-24T07:52:44.758Z,99932.81
2023-04-24T07:55:18.088Z,99927.56
2023-04-24T07:57:50.311Z,99926.63
2023-04-24T08:00:23.882Z,99926.56
2023-04-24T08:02:59.878Z,99935.25
2023-04-24T08:05:39.401Z,99922.06
2023-04-24T08:08:15.189Z,99929.16
2023-04-24T08:10:50.201Z,99928.19
2023-04-24T08:13:27.047Z,99941.22
2023-04-24T08:16:00.846Z,99947.41
2023-04-24T08:18:31.346Z,99959.66
2023-04-24T08:21:02.742Z,99950.78
2023-04-24T08:23:34.051Z,99949.97
2023-04-24T08:26:08.990Z,99962.06
2023-04-24T08:28:38.859Z,99973.38
2023-04-24T08:31:18.125Z,99985.63
2023-04-24T08:33:56.197Z,99990.00
2023-04-24T08:36:39.715Z,99997.75
2023-04-24T08:39:31.088Z,99995.88
2023-04-24T08:42:11.281Z,100008.13
2023-04-24T08:44:41.391Z,100000.97
2023-04-24T08:47:38.414Z,99999.91
2023-04-24T08:50:11.034Z,100006.91
2023-04-24T08:52:41.996Z,100013.91
2023-04-24T08:55:18.880Z,100015.72
2023-04-24T08:57:58.531Z,100025.31
2023-04-24T09:00:34.013Z,100035.06
2023-04-24T09:03:10.332Z,100028.97
2023-04-24T09:05:46.902Z,100032.56
2023-04-24T09:08:17.903Z,100035.25
2023-04-24T09:10:51.048Z,100032.69
2023-04-24T09:13:24.736Z,100036.22
2023-04-24T09:16:00.974Z,100045.16
2023-04-24T09:18:39.482Z,100050.38
2023-04-24T09:21:14.356Z,100054.84
2023-04-24T09:23:46.340Z,100063.63
2023-04-24T09:26:21.530Z,100065.28
2023-04-24T09:28:51.374Z,100063.53
2023-04-24T09:31:31.688Z,100071.47
2023-04-24T09:34:08.184Z,100074.88
2023-04-24T09:36:42.239Z,100075.75
2023-04-24T09:39:17.122Z,100081.81
2023-04-24T09:41:54.217Z,100085.25
2023-04-24T09:44:30.299Z,100088.75
2023-04-24T09:47:05.863Z,100103.75
2023-04-24T09:49:40.479Z,100099.47
2023-04-24T09:52:15.439Z,100111.91
2023-04-24T09:54:45.410Z,100119.03
2023-04-24T09:57:15.211Z,100117.31
2023-04-24T09:59:53.200Z,100108.66
2023-04-24T10:02:29.655Z,100121.06
2023-04-24T10:05:04.301Z,100116.75
2023-04-24T10:10:23.213Z,100134.44
2023-04-24T10:12:55.174Z,100138.78
2023-04-24T10:15:27.386Z,100138.78
2023-04-24T10:17:57.765Z,100146.75
2023-04-24T10:20:32.720Z,100159.97
2023-04-24T10:23:06.565Z,100161.63
2023-04-24T10:25:38.227Z,100150.22
2023-04-24T10:28:13.869Z,100163.38
2023-04-24T10:30:47.466Z,100168.69
2023-04-24T10:33:22.313Z,100167.03
2023-04-24T10:35:59.600Z,100174.13
2023-04-24T10:38:35.586Z,100173.44
2023-04-24T10:41:17.571Z,100183.28
2023-04-24T10:43:52.234Z,100185.97
2023-04-24T10:46:25.072Z,100189.38
2023-04-24T10:48:57.602Z,100185.03
2023-04-24T10:51:51.023Z,100193.06
2023-04-24T10:54:31.160Z,100194.06
2023-04-24T10:57:33.401Z,100197.63
2023-04-24T11:00:21.641Z,100203.97
2023-04-24T11:02:56.695Z,100204.03
2023-04-24T11:05:26.981Z,100207.59
2023-04-24T11:08:18.046Z,100210.34
2023-04-24T11:10:59.345Z,100219.28
2023-04-24T11:13:56.651Z,100226.44
2023-04-24T11:16:38.613Z,100216.84
2023-04-24T11:19:13.186Z,100224.75
2023-04-24T11:21:45.392Z,100229.03
2023-04-24T11:24:41.194Z,100221.03
2023-04-24T11:27:15.866Z,100226.06
2023-04-24T11:29:50.929Z,100232.13
2023-04-24T11:32:33.953Z,100226.91
2023-04-24T11:35:09.645Z,100232.19
2023-04-24T11:37:44.628Z,100239.84
2023-04-24T11:40:21.353Z,100243.19
2023-04-24T11:42:52.210Z,100236.84
2023-04-24T11:45:25.238Z,100246.50
2023-04-24T11:47:56.325Z,100240.28
2023-04-24T11:50:32.724Z,100249.09
2023-04-24T11:53:04.934Z,100243.75
2023-04-24T11:55:47.621Z,100262.91
2023-04-24T11:58:30.302Z,100264.72
2023-04-24T12:01:13.597Z,100272.56
2023-04-24T12:03:49.486Z,100267.28
2023-04-24T12:06:19.578Z,100264.66
2023-04-24T12:09:04.737Z,100272.47
2023-04-24T12:11:56.968Z,100279.63
2023-04-24T12:14:39.565Z,100272.72
2023-04-24T12:17:12.118Z,100278.88
2023-04-24T12:19:43.284Z,100282.31
2023-04-24T12:22:13.156Z,100284.03
2023-04-24T12:25:06.632Z,100283.03
2023-04-24T12:27:45.917Z,100290.94
2023-04-24T12:30:23.713Z,100289.06
2023-04-24T12:32:56.168Z,100294.28
2023-04-24T12:35:29.366Z,100303.06
2023-04-24T12:37:59.199Z,100291.66
2023-04-24T12:40:31.497Z,100305.66
2023-04-24T12:43:19.693Z,100302.13
2023-04-24T12:45:52.609Z,100307.50
2023-04-24T12:48:24.680Z,100310.13
2023-04-24T12:50:57.405Z,100308.28
2023-04-24T12:53:30.542Z,100303.97
2023-04-24T12:56:00.733Z,100309.31
2023-04-24T12:58:33.161Z,100318.94
2023-04-24T13:03:47.931Z,100311.84
2023-04-24T13:06:24.180Z,100324.09
2023-04-24T13:09:01.876Z,100331.00
2023-04-24T13:11:33.225Z,100328.31
2023-04-24T13:14:09.850Z,100332.50
2023-04-24T13:16:40.753Z,100326.31
2023-04-24T13:19:14.636Z,100331.47
2023-04-24T13:21:48.443Z,100333.22
2023-04-24T13:24:18.575Z,100333.22
2023-04-24T13:26:50.035Z,100336.13
2023-04-24T13:29:22.480Z,100334.56
2023-04-24T13:32:00.268Z,100327.63
2023-04-24T13:34:35.509Z,100328.84
2023-04-24T13:37:10.180Z,100330.00
2023-04-24T13:39:40.003Z,100334.53
2023-04-24T13:42:12.845Z,100339.97
2023-04-24T13:44:48.345Z,100346.84
2023-04-24T13:47:24.689Z,100346.78
2023-04-24T13:49:55.254Z,100357.88
2023-04-24T13:52:25.068Z,100353.97
2023-04-24T13:54:54.833Z,100351.13
2023-04-24T13:57:27.207Z,100348.41
2023-04-24T14:00:05.107Z,100350.94
2023-04-24T14:02:36.753Z,100345.63
2023-04-24T14:05:12.232Z,100346.53
2023-04-24T14:07:45.121Z,100348.31
2023-04-24T14:10:14.960Z,100345.72
2023-04-24T14:12:44.809Z,100346.66
2023-04-24T14:15:17.858Z,100346.53
2023-04-24T14:17:47.740Z,100347.38
2023-04-24T14:20:17.671Z,100344.56
2023-04-24T14:22:47.461Z,100348.88
2023-04-24T14:25:17.310Z,100347.13
2023-04-24T14:27:51.093Z,100343.63
2023-04-24T14:30:25.846Z,100347.13
2023-04-24T14:32:55.708Z,100349.75
2023-04-24T14:35:31.241Z,100351.53
2023-04-24T14:38:02.652Z,100354.09
2023-04-24T14:41:04.563Z,100372.44
2023-04-24T14:43:29.271Z,100374.78
2023-04-24T14:46:22.902Z,100370.22
2023-04-24T14:48:52.713Z,100365.00
2023-04-24T14:51:23.886Z,100366.56
2023-04-24T14:53:55.876Z,100362.19
2023-04-24T14:56:25.907Z,100367.44
2023-04-24T14:58:55.756Z,100370.06
2023-04-24T15:01:32.561Z,100365.69
2023-04-24T15:04:06.269Z,100365.75
2023-04-24T15:06:36.861Z,100373.66
2023-04-24T15:09:07.012Z,100374.56
2023-04-24T15:11:36.927Z,100370.06
2023-04-24T15:14:06.802Z,100374.41
2023-04-24T15:16:39.344Z,100372.69
2023-04-24T15:19:09.275Z,100368.31
2023-04-24T15:21:43.845Z,100378.00
2023-04-24T15:24:13.698Z,100363.19
2023-04-24T15:26:43.611Z,100374.63
2023-04-24T15:29:13.399Z,100369.25
2023-04-24T15:31:45.837Z,100372.69
2023-04-24T15:34:15.690Z,100376.06
2023-04-24T15:36:45.636Z,100371.50
2023-04-24T15:39:15.521Z,100377.66
2023-04-24T15:41:45.380Z,100373.31
2023-04-24T15:44:21.513Z,100378.66
2023-04-24T15:46:54.216Z,100378.66
2023-04-24T15:49:24.116Z,100396.09
2023-04-24T15:51:54.412Z,100383.75
2023-04-24T15:54:24.228Z,100398.81
2023-04-24T15:56:54.403Z,100396.38
2023-04-24T15:59:24.308Z,100397.31
2023-04-24T16:01:56.914Z,100387.63
2023-04-24T16:04:27.125Z,100394.69
2023-04-24T16:06:59.986Z,100399.06
2023-04-24T16:09:29.809Z,100393.94
2023-04-24T16:11:59.811Z,100393.13
2023-04-24T16:14:29.882Z,100402.88
2023-04-24T16:17:05.338Z,100400.25
2023-04-24T16:19:35.522Z,100401.13
2023-04-24T16:22:05.670Z,100414.25
2023-04-24T16:24:37.188Z,100408.16
2023-04-24T16:27:07.357Z,100410.91
2023-04-24T16:29:37.214Z,100410.16
2023-04-24T16:32:09.791Z,100410.09
2023-04-24T16:34:39.734Z,100417.72
2023-04-24T16:37:09.529Z,100429.88
2023-04-24T16:39:39.352Z,100418.97
2023-04-24T16:42:09.156Z,100427.59
2023-04-24T16:44:39.589Z,100430.16
2023-04-24T16:47:14.430Z,100429.97
2023-04-24T16:49:44.401Z,100436.84
2023-04-24T16:52:14.813Z,100450.91
2023-04-24T16:54:44.670Z,100467.56
2023-04-24T16:57:15.317Z,100483.94
2023-04-24T16:59:45.233Z,100485.22
2023-04-24T17:02:17.677Z,100493.69
2023-04-24T17:04:48.334Z,100492.53
2023-04-24T17:07:19.826Z,100495.00
2023-04-24T17:09:56.080Z,100502.00
2023-04-24T17:12:29.039Z,100502.88
2023-04-24T17:15:02.893Z,100502.09
2023-04-24T17:17:42.749Z,100498.72
2023-04-24T17:20:22.158Z,100503.25
2023-04-24T17:22:54.660Z,100507.81
2023-04-24T17:25:27.667Z,100500.88
2023-04-24T17:28:01.198Z,100498.47
2023-04-24T17:30:31.081Z,100503.75
2023-04-24T17:33:03.702Z,100504.63
2023-04-24T17:35:40.624Z,100509.88
2023-04-24T17:38:10.574Z,100507.19
2023-04-24T17:40:41.041Z,100511.63
2023-04-24T17:43:10.846Z,100516.06
2023-04-24T17:45:40.852Z,100512.56
2023-04-24T17:48:13.364Z,100516.16
2023-04-24T17:50:43.632Z,100513.59
2023-04-24T17:53:13.970Z,100517.91
2023-04-24T17:55:44.641Z,100521.41
2023-04-24T17:58:14.927Z,100522.34
2023-04-24T18:00:45.019Z,100525.06
2023-04-24T18:03:19.097Z,100524.25
2023-04-24T18:05:54.326Z,100519.00
2023-04-24T18:08:24.103Z,100530.31
2023-04-24T18:10:54.065Z,100535.50
2023-04-24T18:13:23.896Z,100538.94
2023-04-24T18:15:53.706Z,100529.28
2023-04-24T18:18:26.159Z,100524.97
2023-04-24T18:20:56.063Z,100537.25
2023-04-24T18:23:26.718Z,100527.69
2023-04-24T18:25:56.520Z,100539.16
2023-04-24T18:28:26.377Z,100540.13
2023-04-24T18:30:56.252Z,100544.56
2023-04-24T18:33:28.865Z,100551.56
2023-04-24T18:35:58.697Z,100550.72
2023-04-24T18:38:28.953Z,100551.63
2023-04-24T18:40:58.882Z,100552.47
2023-04-24T18:43:28.813Z,100554.16
2023-04-24T18:46:00.880Z,100555.84
2023-04-24T18:48:33.277Z,100554.91
2023-04-24T18:51:03.479Z,100564.50
2023-04-24T18:53:33.365Z,100555.75
2023-04-24T18:56:04.726Z,100570.56
2023-04-24T18:58:34.536Z,100578.22
2023-04-24T19:01:06.826Z,100592.97
2023-04-24T19:03:42.303Z,100593.03
2023-04-24T19:06:16.025Z,100594.81
2023-04-24T19:08:45.879Z,100592.03
2023-04-24T19:11:15.856Z,100591.88
2023-04-24T19:13:45.724Z,100601.44
2023-04-24T19:16:15.755Z,100599.66
2023-04-24T19:18:48.441Z,100605.81
2023-04-24T19:21:18.515Z,100610.81
2023-04-24T19:23:50.614Z,100619.50
2023-04-24T19:26:22.430Z,100614.09
2023-04-24T19:28:53.775Z,100611.47
2023-04-24T19:31:23.586Z,100620.22
2023-04-24T19:33:59.473Z,100625.50
2023-04-24T19:36:29.317Z,100623.91
2023-04-24T19:38:59.148Z,100626.63
2023-04-24T19:41:28.936Z,100628.38
2023-04-24T19:43:58.758Z,100631.78
2023-04-24T19:46:28.608Z,100638.94
2023-04-24T19:49:01.133Z,100629.16
2023-04-24T19:51:39.737Z,100639.56
2023-04-24T19:54:12.778Z,100643.88
2023-04-24T19:59:30.729Z,100650.88
2023-04-24T20:02:04.305Z,100648.88
2023-04-24T20:04:42.322Z,100651.09
2023-04-24T20:07:18.554Z,100661.50
2023-04-24T20:09:48.341Z,100664.81
2023-04-24T20:12:21.068Z,100667.50
2023-04-24T20:15:04.997Z,100657.75
2023-04-24T20:17:39.106Z,100669.91
2023-04-24T20:20:14.415Z,100684.63
2023-04-24T20:22:47.494Z,100674.84
2023-04-24T20:25:20.029Z,100677.38
2023-04-24T20:27:50.942Z,100677.44
2023-04-24T20:30:29.992Z,100682.78
2023-04-24T20:33:05.954Z,100690.94
2023-04-24T20:35:38.444Z,100686.66
2023-04-24T20:38:11.142Z,100689.25
2023-04-24T20:40:56.721Z,100691.53
2023-04-24T20:43:29.335Z,100690.50
2023-04-24T20:46:02.161Z,100698.19
2023-04-24T20:48:38.320Z,100709.59
2023-04-24T20:51:17.710Z,100704.31
2023-04-24T20:53:53.479Z,100714.84
2023-04-24T20:56:30.600Z,100709.38
2023-04-24T20:59:00.427Z,100714.69
2023-04-24T21:01:33.058Z,100710.16
2023-04-24T21:04:10.157Z,100721.38
2023-04-24T21:06:48.165Z,100712.00
2023-04-24T21:09:26.981Z,100713.84
2023-04-24T21:12:10.137Z,100716.53
2023-04-24T21:14:39.975Z,100719.59
2023-04-24T21:17:09.836Z,100720.31
2023-04-24T21:19:43.601Z,100735.38
2023-04-24T21:22:17.866Z,100725.81
2023-04-24T21:24:50.645Z,100725.91
2023-04-24T21:27:23.060Z,100740.78
2023-04-24T21:29:54.659Z,100739.53
2023-04-24T21:32:27.450Z,100745.31
2023-04-24T21:35:01.019Z,100748.78
2023-04-24T21:37:36.166Z,100748.41
2023-04-24T21:40:19.822Z,100750.09
2023-04-24T21:42:53.317Z,100749.38
2023-04-24T21:45:23.385Z,100754.44
2023-04-24T21:47:58.590Z,100755.03
2023-04-24T21:50:31.436Z,100762.16
2023-04-24T21:53:05.630Z,100761.25
2023-04-24T21:55:38.676Z,100756.75
2023-04-24T21:58:08.653Z,100763.47
2023-04-24T22:00:40.320Z,100762.63
2023-04-24T22:03:12.035Z,100768.25
2023-04-24T22:05:43.771Z,100763.78
2023-04-24T22:08:16.809Z,100777.75
2023-04-24T22:10:46.679Z,100775.91
2023-04-24T22:16:01.359Z,100781.16
2023-04-24T22:18:46.559Z,100782.81
2023-04-24T22:21:17.056Z,100779.44
2023-04-24T22:23:54.104Z,100784.66
2023-04-24T22:26:27.968Z,100782.91
2023-04-24T22:29:00.885Z,100790.72
2023-04-24T22:31:30.839Z,100789.72
2023-04-24T22:34:08.422Z,100794.97
2023-04-24T22:36:42.565Z,100794.00
2023-04-24T22:39:20.590Z,100790.41
2023-04-24T22:41:52.195Z,100797.41
2023-04-24T22:44:22.393Z,100799.84
2023-04-24T22:46:52.229Z,100804.19
2023-04-24T22:49:24.883Z,100795.50
2023-04-24T22:52:02.204Z,100798.28
2023-04-24T22:54:40.195Z,100800.91
2023-04-24T22:57:15.613Z,100800.28
2023-04-24T22:59:45.701Z,100799.22
2023-04-24T23:02:20.985Z,100798.25
2023-04-24T23:04:54.377Z,100792.88
2023-04-24T23:07:24.197Z,100800.69
2023-04-24T23:09:56.673Z,100805.06
2023-04-24T23:12:26.520Z,100810.28
2023-04-24T23:15:01.719Z,100813.03
2023-04-24T23:17:41.286Z,100811.25
2023-04-24T23:20:16.322Z,100822.34
2023-04-24T23:22:47.384Z,100819.72
2023-04-24T23:25:22.892Z,100817.31
2023-04-24T23:30:46.352Z,100824.34
2023-04-24T23:33:23.258Z,100827.03
2023-04-24T23:35:54.557Z,100834.22
2023-04-24T23:38:24.418Z,100836.09
2023-04-24T23:40:56.860Z,100834.22
2023-04-24T23:43:26.784Z,100833.22
2023-04-24T23:45:56.757Z,100830.59
2023-04-24T23:48:26.862Z,100833.31
2023-04-24T23:50:56.737Z,100830.72
2023-04-24T23:53:26.585Z,100834.06
2023-04-24T23:55:59.853Z,100832.84
2023-04-24T23:58:29.641Z,100835.47
